sensor_id;sensor_type;location;lat;lon;timestamp;P1;durP1;ratioP1;P2;durP2;ratioP2
51525;SDS011;37611;51.794;21.590;2023-02-15T02:55:12;33.70;;;26.30;;
51525;SDS011;37611;51.794;21.590;2023-02-15T02:59:37;36.00;;;25.80;;
51525;SDS011;37611;51.794;21.590;2023-02-15T03:03:45;39.80;;;25.40;;
51525;SDS011;37611;51.794;21.590;2023-02-15T03:07:53;34.20;;;24.80;;
51525;SDS011;37611;51.794;21.590;2023-02-15T03:12:00;32.50;;;22.90;;
51525;SDS011;37611;51.794;21.590;2023-02-15T03:16:07;29.10;;;21.90;;
51525;SDS011;37611;51.794;21.590;2023-02-15T03:20:36;36.70;;;24.90;;
51525;SDS011;37611;51.794;21.590;2023-02-15T03:25:02;37.90;;;26.00;;
51525;SDS011;37611;51.794;21.590;2023-02-15T03:29:04;31.40;;;23.30;;
51525;SDS011;37611;51.794;21.590;2023-02-15T03:33:08;36.00;;;24.20;;
51525;SDS011;37611;51.794;21.590;2023-02-15T03:41:37;33.30;;;25.60;;
51525;SDS011;37611;51.794;21.590;2023-02-15T03:45:49;34.80;;;24.50;;
51525;SDS011;37611;51.794;21.590;2023-02-15T03:50:20;30.50;;;22.60;;
51525;SDS011;37611;51.794;21.590;2023-02-15T03:54:44;31.20;;;23.10;;
51525;SDS011;37611;51.794;21.590;2023-02-15T03:58:49;37.70;;;24.50;;
51525;SDS011;37611;51.794;21.590;2023-02-15T04:03:23;38.50;;;25.90;;
51525;SDS011;37611;51.794;21.590;2023-02-15T04:07:33;34.70;;;23.40;;
51525;SDS011;37611;51.794;21.590;2023-02-15T04:11:35;33.60;;;24.20;;
51525;SDS011;37611;51.794;21.590;2023-02-15T04:15:37;37.10;;;25.20;;
51525;SDS011;37611;51.794;21.590;2023-02-15T04:19:57;34.30;;;25.00;;
51525;SDS011;37611;51.794;21.590;2023-02-15T04:24:18;38.20;;;25.30;;
51525;SDS011;37611;51.794;21.590;2023-02-15T04:28:39;35.20;;;25.50;;
51525;SDS011;37611;51.794;21.590;2023-02-15T04:32:40;36.60;;;26.10;;
51525;SDS011;37611;51.794;21.590;2023-02-15T07:46:08;25.80;;;19.60;;
51525;SDS011;37611;51.794;21.590;2023-02-15T07:50:13;24.20;;;19.80;;
51525;SDS011;37611;51.794;21.590;2023-02-15T09:26:34;35.90;;;24.20;;
51525;SDS011;37611;51.794;21.590;2023-02-15T09:31:46;42.70;;;27.60;;
51525;SDS011;37611;51.794;21.590;2023-02-15T09:35:52;49.30;;;33.40;;
51525;SDS011;37611;51.794;21.590;2023-02-15T09:39:53;49.90;;;33.00;;
51525;SDS011;37611;51.794;21.590;2023-02-15T09:56:42;50.20;;;32.50;;
51525;SDS011;37611;51.794;21.590;2023-02-15T10:00:53;45.90;;;29.40;;
51525;SDS011;37611;51.794;21.590;2023-02-15T10:13:49;53.10;;;33.60;;
51525;SDS011;37611;51.794;21.590;2023-02-15T10:26:37;48.70;;;31.10;;
51525;SDS011;37611;51.794;21.590;2023-02-15T10:30:48;45.40;;;30.00;;
51525;SDS011;37611;51.794;21.590;2023-02-15T10:35:02;39.10;;;27.60;;
51525;SDS011;37611;51.794;21.590;2023-02-15T10:43:57;55.40;;;33.70;;
51525;SDS011;37611;51.794;21.590;2023-02-15T10:56:41;35.70;;;25.90;;
51525;SDS011;37611;51.794;21.590;2023-02-15T11:00:45;44.90;;;29.40;;
51525;SDS011;37611;51.794;21.590;2023-02-15T11:04:55;48.80;;;29.30;;
51525;SDS011;37611;51.794;21.590;2023-02-15T11:09:10;45.20;;;29.60;;
51525;SDS011;37611;51.794;21.590;2023-02-15T11:13:20;48.70;;;32.50;;
51525;SDS011;37611;51.794;21.590;2023-02-15T11:17:28;70.50;;;41.40;;
51525;SDS011;37611;51.794;21.590;2023-02-15T11:21:44;69.20;;;41.90;;
51525;SDS011;37611;51.794;21.590;2023-02-15T11:25:58;57.00;;;37.00;;
51525;SDS011;37611;51.794;21.590;2023-02-15T11:30:10;60.80;;;40.20;;
51525;SDS011;37611;51.794;21.590;2023-02-15T11:34:37;61.40;;;38.60;;
51525;SDS011;37611;51.794;21.590;2023-02-15T11:38:40;60.20;;;39.50;;
51525;SDS011;37611;51.794;21.590;2023-02-15T11:42:47;40.10;;;27.30;;
51525;SDS011;37611;51.794;21.590;2023-02-15T11:46:51;43.70;;;30.50;;
51525;SDS011;37611;51.794;21.590;2023-02-15T11:50:53;56.60;;;37.00;;
51525;SDS011;37611;51.794;21.590;2023-02-15T11:54:55;50.90;;;33.50;;
51525;SDS011;37611;51.794;21.590;2023-02-15T11:58:58;45.70;;;29.70;;
51525;SDS011;37611;51.794;21.590;2023-02-15T12:03:07;42.10;;;27.40;;
51525;SDS011;37611;51.794;21.590;2023-02-15T12:11:26;50.90;;;32.80;;
51525;SDS011;37611;51.794;21.590;2023-02-15T12:15:33;40.40;;;27.90;;
51525;SDS011;37611;51.794;21.590;2023-02-15T12:19:37;42.30;;;27.50;;
51525;SDS011;37611;51.794;21.590;2023-02-15T12:27:49;43.90;;;29.00;;
51525;SDS011;37611;51.794;21.590;2023-02-15T12:31:52;45.10;;;28.90;;
51525;SDS011;37611;51.794;21.590;2023-02-15T12:36:09;58.40;;;40.00;;
51525;SDS011;37611;51.794;21.590;2023-02-15T12:44:52;51.10;;;33.70;;
51525;SDS011;37611;51.794;21.590;2023-02-15T12:49:30;47.60;;;31.90;;
51525;SDS011;37611;51.794;21.590;2023-02-15T12:53:31;59.50;;;38.20;;
51525;SDS011;37611;51.794;21.590;2023-02-15T12:57:34;64.70;;;38.30;;
51525;SDS011;37611;51.794;21.590;2023-02-15T13:01:36;52.60;;;33.50;;
51525;SDS011;37611;51.794;21.590;2023-02-15T13:05:38;44.30;;;29.10;;
51525;SDS011;37611;51.794;21.590;2023-02-15T13:09:44;42.20;;;28.00;;
51525;SDS011;37611;51.794;21.590;2023-02-15T13:13:53;41.60;;;27.70;;
51525;SDS011;37611;51.794;21.590;2023-02-15T13:17:57;44.00;;;30.00;;
51525;SDS011;37611;51.794;21.590;2023-02-15T13:22:02;80.90;;;45.80;;
51525;SDS011;37611;51.794;21.590;2023-02-15T13:26:18;50.70;;;33.30;;
51525;SDS011;37611;51.794;21.590;2023-02-15T13:30:27;36.60;;;24.40;;
51525;SDS011;37611;51.794;21.590;2023-02-15T13:34:36;39.90;;;27.10;;
51525;SDS011;37611;51.794;21.590;2023-02-15T13:42:59;44.20;;;30.60;;
51525;SDS011;37611;51.794;21.590;2023-02-15T13:52:19;63.70;;;41.40;;
51525;SDS011;37611;51.794;21.590;2023-02-15T13:56:27;73.30;;;42.80;;
51525;SDS011;37611;51.794;21.590;2023-02-15T14:09:10;51.10;;;34.20;;
51525;SDS011;37611;51.794;21.590;2023-02-15T14:13:40;40.60;;;25.70;;
51525;SDS011;37611;51.794;21.590;2023-02-15T14:22:04;55.10;;;37.00;;
51525;SDS011;37611;51.794;21.590;2023-02-15T14:26:23;56.80;;;36.00;;
51525;SDS011;37611;51.794;21.590;2023-02-15T14:30:46;53.40;;;37.30;;
51525;SDS011;37611;51.794;21.590;2023-02-15T14:34:57;40.30;;;25.50;;
51525;SDS011;37611;51.794;21.590;2023-02-15T14:47:44;70.20;;;45.00;;
51525;SDS011;37611;51.794;21.590;2023-02-15T15:00:30;71.40;;;43.20;;
51525;SDS011;37611;51.794;21.590;2023-02-15T15:04:39;99.30;;;54.00;;
51525;SDS011;37611;51.794;21.590;2023-02-15T15:08:44;57.20;;;34.60;;
51525;SDS011;37611;51.794;21.590;2023-02-15T15:12:55;47.30;;;29.20;;
51525;SDS011;37611;51.794;21.590;2023-02-15T15:16:59;56.50;;;38.70;;
51525;SDS011;37611;51.794;21.590;2023-02-15T15:21:06;48.20;;;31.00;;
51525;SDS011;37611;51.794;21.590;2023-02-15T15:25:09;51.10;;;30.20;;
51525;SDS011;37611;51.794;21.590;2023-02-15T15:29:39;57.60;;;37.00;;
51525;SDS011;37611;51.794;21.590;2023-02-15T15:42:32;74.30;;;44.90;;
51525;SDS011;37611;51.794;21.590;2023-02-15T15:50:50;153.50;;;76.10;;
51525;SDS011;37611;51.794;21.590;2023-02-15T15:54:56;138.00;;;74.40;;
51525;SDS011;37611;51.794;21.590;2023-02-15T15:59:04;73.40;;;49.50;;
51525;SDS011;37611;51.794;21.590;2023-02-15T16:03:20;111.80;;;65.30;;
51525;SDS011;37611;51.794;21.590;2023-02-15T16:07:27;74.40;;;47.20;;
51525;SDS011;37611;51.794;21.590;2023-02-15T16:11:29;152.80;;;96.00;;
51525;SDS011;37611;51.794;21.590;2023-02-15T16:15:36;79.10;;;50.90;;
51525;SDS011;37611;51.794;21.590;2023-02-15T16:19:58;172.10;;;101.60;;
51525;SDS011;37611;51.794;21.590;2023-02-15T16:28:38;129.80;;;81.80;;
51525;SDS011;37611;51.794;21.590;2023-02-15T16:32:40;118.70;;;78.60;;
51525;SDS011;37611;51.794;21.590;2023-02-15T16:36:42;116.50;;;73.10;;
51525;SDS011;37611;51.794;21.590;2023-02-15T16:45:08;92.40;;;58.80;;
51525;SDS011;37611;51.794;21.590;2023-02-15T16:53:23;177.40;;;106.30;;
51525;SDS011;37611;51.794;21.590;2023-02-15T16:57:31;239.30;;;130.70;;
51525;SDS011;37611;51.794;21.590;2023-02-15T17:01:36;157.90;;;90.30;;
51525;SDS011;37611;51.794;21.590;2023-02-15T17:09:51;205.70;;;134.40;;
51525;SDS011;37611;51.794;21.590;2023-02-15T17:18:15;165.30;;;105.00;;
51525;SDS011;37611;51.794;21.590;2023-02-15T17:22:20;192.60;;;118.80;;
51525;SDS011;37611;51.794;21.590;2023-02-15T17:26:26;242.90;;;132.80;;
51525;SDS011;37611;51.794;21.590;2023-02-15T17:30:31;519.30;;;236.50;;
51525;SDS011;37611;51.794;21.590;2023-02-15T17:42:59;171.80;;;110.60;;
51525;SDS011;37611;51.794;21.590;2023-02-15T17:47:02;193.20;;;114.40;;
51525;SDS011;37611;51.794;21.590;2023-02-15T17:51:05;293.10;;;158.00;;
51525;SDS011;37611;51.794;21.590;2023-02-15T17:55:13;822.40;;;331.00;;
51525;SDS011;37611;51.794;21.590;2023-02-15T17:59:35;316.00;;;141.40;;
51525;SDS011;37611;51.794;21.590;2023-02-15T18:03:55;1754.20;;;599.40;;
51525;SDS011;37611;51.794;21.590;2023-02-15T18:08:17;1361.60;;;496.00;;
51525;SDS011;37611;51.794;21.590;2023-02-15T18:12:42;809.20;;;337.80;;
51525;SDS011;37611;51.794;21.590;2023-02-15T18:16:44;296.30;;;146.70;;
51525;SDS011;37611;51.794;21.590;2023-02-15T18:20:46;385.30;;;168.60;;
51525;SDS011;37611;51.794;21.590;2023-02-15T18:24:48;279.20;;;168.20;;
51525;SDS011;37611;51.794;21.590;2023-02-15T18:28:50;316.50;;;168.10;;
51525;SDS011;37611;51.794;21.590;2023-02-15T18:32:53;422.30;;;213.50;;
51525;SDS011;37611;51.794;21.590;2023-02-15T18:36:57;383.80;;;194.10;;
51525;SDS011;37611;51.794;21.590;2023-02-15T18:41:02;265.60;;;127.30;;
51525;SDS011;37611;51.794;21.590;2023-02-15T18:45:19;231.40;;;117.40;;
51525;SDS011;37611;51.794;21.590;2023-02-15T18:49:21;233.20;;;122.10;;
51525;SDS011;37611;51.794;21.590;2023-02-15T18:53:23;192.40;;;104.30;;
51525;SDS011;37611;51.794;21.590;2023-02-15T18:57:24;162.00;;;92.90;;
51525;SDS011;37611;51.794;21.590;2023-02-15T19:01:28;144.80;;;91.00;;
51525;SDS011;37611;51.794;21.590;2023-02-15T19:05:30;132.10;;;83.80;;
51525;SDS011;37611;51.794;21.590;2023-02-15T19:09:33;122.10;;;80.90;;
51525;SDS011;37611;51.794;21.590;2023-02-15T19:13:35;159.40;;;91.50;;
51525;SDS011;37611;51.794;21.590;2023-02-15T19:17:36;130.00;;;72.00;;
51525;SDS011;37611;51.794;21.590;2023-02-15T19:21:38;124.70;;;68.70;;
51525;SDS011;37611;51.794;21.590;2023-02-15T19:25:40;135.60;;;82.30;;
51525;SDS011;37611;51.794;21.590;2023-02-15T19:29:42;134.20;;;84.10;;
51525;SDS011;37611;51.794;21.590;2023-02-15T19:33:44;141.50;;;85.10;;
51525;SDS011;37611;51.794;21.590;2023-02-15T19:37:46;234.00;;;118.30;;
51525;SDS011;37611;51.794;21.590;2023-02-15T19:41:59;344.40;;;159.90;;
51525;SDS011;37611;51.794;21.590;2023-02-15T19:46:01;242.10;;;126.40;;
51525;SDS011;37611;51.794;21.590;2023-02-15T19:50:02;283.20;;;146.90;;
51525;SDS011;37611;51.794;21.590;2023-02-15T19:54:26;278.10;;;142.20;;
51525;SDS011;37611;51.794;21.590;2023-02-15T19:58:29;261.20;;;141.60;;
51525;SDS011;37611;51.794;21.590;2023-02-15T20:02:30;282.40;;;152.40;;
51525;SDS011;37611;51.794;21.590;2023-02-15T20:06:32;287.10;;;160.40;;
51525;SDS011;37611;51.794;21.590;2023-02-15T20:10:34;396.80;;;232.60;;
51525;SDS011;37611;51.794;21.590;2023-02-15T20:14:36;241.90;;;143.60;;
51525;SDS011;37611;51.794;21.590;2023-02-15T20:18:38;226.80;;;138.90;;
51525;SDS011;37611;51.794;21.590;2023-02-15T20:22:45;190.10;;;117.50;;
51525;SDS011;37611;51.794;21.590;2023-02-15T20:26:49;175.90;;;112.30;;
51525;SDS011;37611;51.794;21.590;2023-02-15T20:30:51;182.40;;;112.80;;
51525;SDS011;37611;51.794;21.590;2023-02-15T20:34:53;165.70;;;102.60;;
51525;SDS011;37611;51.794;21.590;2023-02-15T20:38:56;171.70;;;105.90;;
51525;SDS011;37611;51.794;21.590;2023-02-15T20:43:01;221.40;;;130.80;;
51525;SDS011;37611;51.794;21.590;2023-02-15T20:47:03;206.30;;;129.10;;
51525;SDS011;37611;51.794;21.590;2023-02-15T20:51:08;198.20;;;124.80;;
51525;SDS011;37611;51.794;21.590;2023-02-15T20:55:19;187.60;;;116.40;;
51525;SDS011;37611;51.794;21.590;2023-02-15T21:03:25;204.70;;;124.20;;
51525;SDS011;37611;51.794;21.590;2023-02-15T21:07:31;263.20;;;154.40;;
51525;SDS011;37611;51.794;21.590;2023-02-15T21:11:32;191.70;;;116.20;;
51525;SDS011;37611;51.794;21.590;2023-02-15T21:15:37;215.40;;;130.10;;
51525;SDS011;37611;51.794;21.590;2023-02-15T21:19:40;155.30;;;99.70;;
51525;SDS011;37611;51.794;21.590;2023-02-15T21:23:42;148.50;;;93.20;;
51525;SDS011;37611;51.794;21.590;2023-02-15T21:27:45;133.20;;;83.00;;
51525;SDS011;37611;51.794;21.590;2023-02-15T21:31:46;126.00;;;79.90;;
51525;SDS011;37611;51.794;21.590;2023-02-15T21:35:49;138.20;;;84.20;;
51525;SDS011;37611;51.794;21.590;2023-02-15T21:39:54;177.40;;;109.80;;
51525;SDS011;37611;51.794;21.590;2023-02-15T21:43:56;143.70;;;86.20;;
51525;SDS011;37611;51.794;21.590;2023-02-15T21:48:16;142.80;;;86.30;;
51525;SDS011;37611;51.794;21.590;2023-02-15T21:52:19;146.40;;;86.90;;
51525;SDS011;37611;51.794;21.590;2023-02-15T21:56:23;192.30;;;116.00;;
51525;SDS011;37611;51.794;21.590;2023-02-15T22:00:25;185.10;;;110.60;;
51525;SDS011;37611;51.794;21.590;2023-02-15T22:04:29;168.30;;;106.90;;
51525;SDS011;37611;51.794;21.590;2023-02-15T22:08:31;195.40;;;119.80;;
51525;SDS011;37611;51.794;21.590;2023-02-15T22:12:33;185.20;;;104.50;;
51525;SDS011;37611;51.794;21.590;2023-02-15T22:16:35;226.00;;;122.60;;
51525;SDS011;37611;51.794;21.590;2023-02-15T22:20:37;355.40;;;184.90;;
51525;SDS011;37611;51.794;21.590;2023-02-15T22:24:38;292.50;;;150.60;;
51525;SDS011;37611;51.794;21.590;2023-02-15T22:28:40;266.30;;;136.10;;
51525;SDS011;37611;51.794;21.590;2023-02-15T22:32:43;357.60;;;158.50;;
51525;SDS011;37611;51.794;21.590;2023-02-15T22:36:44;263.90;;;125.70;;
51525;SDS011;37611;51.794;21.590;2023-02-15T22:40:46;261.40;;;131.20;;
51525;SDS011;37611;51.794;21.590;2023-02-15T22:44:51;270.90;;;134.80;;
51525;SDS011;37611;51.794;21.590;2023-02-15T22:48:54;260.30;;;138.40;;
51525;SDS011;37611;51.794;21.590;2023-02-15T22:52:58;215.30;;;114.50;;
51525;SDS011;37611;51.794;21.590;2023-02-15T22:57:01;194.40;;;102.90;;
51525;SDS011;37611;51.794;21.590;2023-02-15T23:01:02;191.40;;;106.80;;
51525;SDS011;37611;51.794;21.590;2023-02-15T23:05:04;189.90;;;105.10;;
51525;SDS011;37611;51.794;21.590;2023-02-15T23:09:06;173.40;;;97.00;;
51525;SDS011;37611;51.794;21.590;2023-02-15T23:13:21;551.00;;;246.00;;
51525;SDS011;37611;51.794;21.590;2023-02-15T23:17:26;476.10;;;196.70;;
51525;SDS011;37611;51.794;21.590;2023-02-15T23:21:29;630.10;;;257.40;;
51525;SDS011;37611;51.794;21.590;2023-02-15T23:25:32;1516.40;;;553.60;;
51525;SDS011;37611;51.794;21.590;2023-02-15T23:29:34;560.10;;;237.00;;
51525;SDS011;37611;51.794;21.590;2023-02-15T23:33:36;554.30;;;223.20;;
51525;SDS011;37611;51.794;21.590;2023-02-15T23:37:38;428.20;;;171.50;;
51525;SDS011;37611;51.794;21.590;2023-02-15T23:41:40;367.70;;;152.50;;
51525;SDS011;37611;51.794;21.590;2023-02-15T23:45:41;329.10;;;138.00;;
51525;SDS011;37611;51.794;21.590;2023-02-15T23:49:43;242.00;;;115.10;;
51525;SDS011;37611;51.794;21.590;2023-02-15T23:53:45;224.20;;;110.10;;
51525;SDS011;37611;51.794;21.590;2023-02-15T23:57:47;152.80;;;86.30;;
